Time;durP1;ratioP1;P1;durP2;ratioP2;P2;SDS_P1;SDS_P2;PMS_P1;PMS_P2;Temp;Humidity;BMP_temperature;BMP_pressure;BME280_temperature;BME280_humidity;BME280_pressure;Samples;Min_cycle;Max_cycle;Signal;HPM_P1;HPM_P2
2023/02/23 00:01:20;;;;;;;;;;;;;;;;;;5090839;28;1976;-45
2023/02/23 00:03:49;;;;;;;;;;;;;;;;;;5090887;28;1605;-41
2023/02/23 00:06:17;;;;;;;;;;;;;;;;;;5074372;28;1733;-42
2023/02/23 00:08:46;;;;;;;;;;;;;;;;;;5070679;28;1951;-44
2023/02/23 00:11:14;;;;;;;;;;;;;;;;;;5070468;28;1610;-40
2023/02/23 00:13:45;;;;;;;;;;;;;;;;;;5071088;28;2014;-39
2023/02/23 00:16:13;;;;;;;;;;;;;;;;;;5073680;28;1493;-41
2023/02/23 00:18:49;;;;;;;;;;;;;;;;;;5074889;28;1149;-42
2023/02/23 00:21:18;;;;;;;;;;;;;;;;;;5074349;28;2138;-43
2023/02/23 00:23:51;;;;;;;;;;;;;;;;;;5074429;28;2202;-41
2023/02/23 00:26:41;;;;;;;;;;;;;;;;;;5074421;28;1313;-45
2023/02/23 00:29:26;;;;;;;;;;;;;;;;;;5074305;28;1256;-41
2023/02/23 00:31:55;;;;;;;;;;;;;;;;;;5064627;28;1723;-43
2023/02/23 00:34:22;;;;;;;;;;;;;;;;;;5074215;28;1820;-45
2023/02/23 00:36:52;;;;;;;;;;;;;;;;;;5074274;28;2278;-43
2023/02/23 00:39:22;;;;;;;;;;;;;;;;;;5074061;28;1708;-44
2023/02/23 00:41:51;;;;;;;;;;;;;;;;;;5074030;28;1961;-41
2023/02/23 00:44:19;;;;;;;;;;;;;;;;;;5073951;28;1870;-47
2023/02/23 00:46:49;;;;;;;;;;;;;;;;;;5073961;28;1264;-42
2023/02/23 00:49:17;;;;;;;;;;;;;;;;;;5073839;28;1760;-41
2023/02/23 00:51:45;;;;;;;;;;;;;;;;;;5073572;28;1377;-41
2023/02/23 00:54:14;;;;;;;;;;;;;;;;;;5056048;28;1764;-41
2023/02/23 00:56:41;;;;;;;;;;;;;;;;;;5073957;28;2014;-42
2023/02/23 00:59:09;;;;;;;;;;;;;;;;;;5073587;28;1425;-42
2023/02/23 01:01:37;;;;;;;;;;;;;;;;;;5073616;28;1961;-41
2023/02/23 01:04:06;;;;;;;;;;;;;;;;;;5073692;28;1741;-41
2023/02/23 01:06:36;;;;;;;;;;;;;;;;;;5074209;28;1774;-43
2023/02/23 01:09:10;;;;;;;;;;;;;;;;;;5093890;28;1224;-46
2023/02/23 01:11:40;;;;;;;;;;;;;;;;;;5093753;28;1979;-42
2023/02/23 01:14:08;;;;;;;;;;;;;;;;;;5093864;28;1685;-46
2023/02/23 01:16:37;;;;;;;;;;;;;;;;;;5075517;28;1915;-45
2023/02/23 01:19:05;;;;;;;;;;;;;;;;;;5093521;28;1518;-44
2023/02/23 01:21:34;;;;;;;;;;;;;;;;;;5075157;28;1967;-39
2023/02/23 01:24:01;;;;;;;;;;;;;;;;;;5075674;28;2099;-42
2023/02/23 01:26:30;;;;;;;;;;;;;;;;;;5092936;28;2019;-38
2023/02/23 01:28:59;;;;;;;;;;;;;;;;;;5075351;28;1592;-38
2023/02/23 01:31:28;;;;;;;;;;;;;;;;;;5075197;28;1266;-42
2023/02/23 01:33:59;;;;;;;;;;;;;;;;;;5093236;28;1259;-41
2023/02/23 01:36:31;;;;;;;;;;;;;;;;;;5075087;28;1752;-41
2023/02/23 01:38:59;;;;;;;;;;;;;;;;;;5075118;28;1246;-44
2023/02/23 01:41:27;;;;;;;;;;;;;;;;;;5075016;28;1918;-41
2023/02/23 01:43:58;;;;;;;;;;;;;;;;;;5093178;28;1659;-41
2023/02/23 01:46:26;;;;;;;;;;;;;;;;;;5093047;28;2122;-41
2023/02/23 01:48:55;;;;;;;;;;;;;;;;;;5093128;28;1804;-40
2023/02/23 01:51:24;;;;;;;;;;;;;;;;;;5092756;28;1603;-41
2023/02/23 01:53:55;;;;;;;;;;;;;;;;;;5093208;28;1425;-48
2023/02/23 01:56:30;;;;;;;;;;;;;;;;;;5092973;28;2131;-40
2023/02/23 01:59:01;;;;;;;;;;;;;;;;;;5074899;28;1517;-41
2023/02/23 02:01:28;;;;;;;;;;;;;;;;;;5074691;28;1965;-46
2023/02/23 02:03:57;;;;;;;;;;;;;;;;;;5074683;28;1799;-41
2023/02/23 02:06:28;;;;;;;;;;;;;;;;;;5075126;28;2424;-44
2023/02/23 02:08:57;;;;;;;;;;;;;;;;;;5072255;28;1442;-45
2023/02/23 02:11:35;;;;;;;;;;;;;;;;;;5054276;28;1608;-41
2023/02/23 02:14:11;;;;;;;;;;;;;;;;;;5072444;28;1876;-44
2023/02/23 02:17:02;;;;;;;;;;;;;;;;;;5072363;28;1520;-40
2023/02/23 02:19:38;;;;;;;;;;;;;;;;;;5072252;28;1687;-40
2023/02/23 02:22:17;;;;;;;;;;;;;;;;;;5054084;28;1916;-47
2023/02/23 02:24:46;;;;;;;;;;;;;;;;;;5054368;28;1743;-42
2023/02/23 02:27:16;;;;;;;;;;;;;;;;;;5072272;28;2258;-41
2023/02/23 02:29:54;;;;;;;;;;;;;;;;;;5071873;28;1546;-40
2023/02/23 02:32:40;;;;;;;;;;;;;;;;;;5070843;28;2070;-41
2023/02/23 02:35:26;;;;;;;;;;;;;;;;;;5071972;28;1722;-45
2023/02/23 02:37:55;;;;;;;;;;;;;;;;;;5070055;28;1695;-49
2023/02/23 02:40:25;;;;;;;;;;;;;;;;;;5071668;28;1676;-42
2023/02/23 02:43:10;;;;;;;;;;;;;;;;;;5071894;28;1914;-46
2023/02/23 02:45:43;;;;;;;;;;;;;;;;;;5071692;28;1735;-42
2023/02/23 02:48:16;;;;;;;;;;;;;;;;;;5071670;28;1721;-45
2023/02/23 02:50:54;;;;;;;;;;;;;;;;;;5071319;28;1986;-45
2023/02/23 02:53:24;;;;;;;;;;;;;;;;;;5071434;28;1245;-41
2023/02/23 02:55:54;;;;;;;;;;;;;;;;;;5071552;28;1940;-41
2023/02/23 02:58:24;;;;;;;;;;;;;;;;;;5053571;28;1446;-41
2023/02/23 04:18:33;;;;;;;;;;;;;;;;;;5057284;28;1789;-40
2023/02/23 04:21:04;;;;;;;;;;;;;;;;;;5056296;28;3504;-38
2023/02/23 04:23:31;;;;;;;;;;;;;;;;;;5055869;28;1904;-42
2023/02/23 04:25:58;;;;;;;;;;;;;;;;;;5056374;28;2102;-37
2023/02/23 04:28:26;;;;;;;;;;;;;;;;;;5057275;28;1503;-39
2023/02/23 04:30:54;;;;;;;;;;;;;;;;;;5057300;28;1834;-45
2023/02/23 04:33:21;;;;;;;;;;;;;;;;;;5057194;28;1481;-40
2023/02/23 04:35:48;;;;;;;;;;;;;;;;;;5071438;28;3022;-44
2023/02/23 04:38:15;;;;;;;;;;;;;;;;;;5076913;28;1493;-42
2023/02/23 04:40:43;;;;;;;;;;;;;;;;;;5077324;28;2229;-41
2023/02/23 04:43:13;;;;;;;;;;;;;;;;;;5072904;28;1919;-43
2023/02/23 04:45:41;;;;;;;;;;;;;;;;;;5057003;28;1989;-43
2023/02/23 04:48:08;;;;;;;;;;;;;;;;;;5057104;28;1427;-45
2023/02/23 04:50:35;;;;;;;;;;;;;;;;;;5056873;28;1727;-48
2023/02/23 04:53:02;;;;;;;;;;;;;;;;;;5056939;28;1575;-44
2023/02/23 04:55:31;;;;;;;;;;;;;;;;;;5056750;28;1474;-43
2023/02/23 04:57:59;;;;;;;;;;;;;;;;;;5057047;28;1485;-42
2023/02/23 05:00:28;;;;;;;;;;;;;;;;;;5057226;28;1336;-40
2023/02/23 05:02:55;;;;;;;;;;;;;;;;;;5053176;28;1916;-41
2023/02/23 05:05:22;;;;;;;;;;;;;;;;;;5062458;28;1788;-46
2023/02/23 05:07:50;;;;;;;;;;;;;;;;;;5074085;28;1628;-42
2023/02/23 05:10:17;;;;;;;;;;;;;;;;;;5073816;28;1706;-42
2023/02/23 05:12:45;;;;;;;;;;;;;;;;;;5073555;28;1869;-44
2023/02/23 05:15:12;;;;;;;;;;;;;;;;;;5073513;28;1500;-44
2023/02/23 05:17:40;;;;;;;;;;;;;;;;;;5073477;28;1907;-47
2023/02/23 05:20:11;;;;;;;;;;;;;;;;;;5073493;28;1313;-39
2023/02/23 05:22:39;;;;;;;;;;;;;;;;;;5073093;28;2287;-40
2023/02/23 05:25:07;;;;;;;;;;;;;;;;;;5073336;28;1690;-40
2023/02/23 05:27:35;;;;;;;;;;;;;;;;;;5073297;28;1836;-46
2023/02/23 05:30:03;;;;;;;;;;;;;;;;;;5073267;28;1391;-44
2023/02/23 05:32:30;;;;;;;;;;;;;;;;;;5057059;28;1466;-42
2023/02/23 05:34:57;;;;;;;;;;;;;;;;;;5061392;28;1996;-40
2023/02/23 05:37:25;;;;;;;;;;;;;;;;;;5072128;28;1985;-44
2023/02/23 05:39:52;;;;;;;;;;;;;;;;;;5073112;28;1947;-40
2023/02/23 05:42:19;;;;;;;;;;;;;;;;;;5072943;28;1915;-48
2023/02/23 05:44:46;;;;;;;;;;;;;;;;;;5073037;28;1274;-42
2023/02/23 05:47:13;;;;;;;;;;;;;;;;;;5072842;28;2399;-40
2023/02/23 05:49:41;;;;;;;;;;;;;;;;;;5073021;28;1830;-43
2023/02/23 05:52:09;;;;;;;;;;;;;;;;;;5072665;28;2315;-41
2023/02/23 05:54:36;;;;;;;;;;;;;;;;;;5073077;28;1837;-42
2023/02/23 05:57:03;;;;;;;;;;;;;;;;;;5092896;28;1865;-47
2023/02/23 05:59:30;;;;;;;;;;;;;;;;;;5093263;28;2018;-43
2023/02/23 06:01:57;;;;;;;;;;;;;;;;;;5092989;28;1985;-40
2023/02/23 06:04:25;;;;;;;;;;;;;;;;;;5091897;28;1919;-41
2023/02/23 06:06:53;;;;;;;;;;;;;;;;;;5072771;28;2072;-44
2023/02/23 06:09:20;;;;;;;;;;;;;;;;;;5072331;28;1675;-45
2023/02/23 06:11:47;;;;;;;;;;;;;;;;;;5072487;28;1622;-45
2023/02/23 06:14:15;;;;;;;;;;;;;;;;;;5072400;28;1379;-41
2023/02/23 06:16:44;;;;;;;;;;;;;;;;;;5072240;28;2032;-41
2023/02/23 06:19:11;;;;;;;;;;;;;;;;;;5072200;28;1638;-46
2023/02/23 06:21:38;;;;;;;;;;;;;;;;;;5072166;28;1845;-43
2023/02/23 06:24:05;;;;;;;;;;;;;;;;;;5071947;28;1910;-42
2023/02/23 06:26:34;;;;;;;;;;;;;;;;;;5072331;28;1351;-42
2023/02/23 06:29:01;;;;;;;;;;;;;;;;;;5072239;28;2287;-39
2023/02/23 06:31:28;;;;;;;;;;;;;;;;;;5072115;28;1966;-44
2023/02/23 06:33:55;;;;;;;;;;;;;;;;;;5054059;28;1528;-45
2023/02/23 06:36:22;;;;;;;;;;;;;;;;;;5053971;28;2141;-41
2023/02/23 06:38:49;;;;;;;;;;;;;;;;;;5072018;28;1673;-44
2023/02/23 06:41:17;;;;;;;;;;;;;;;;;;5071786;28;1416;-41
2023/02/23 06:43:44;;;;;;;;;;;;;;;;;;5071529;28;2065;-44
2023/02/23 06:46:11;;;;;;;;;;;;;;;;;;5071435;28;1810;-41
2023/02/23 06:48:40;;;;;;;;;;;;;;;;;;5071792;28;1724;-47
2023/02/23 06:51:07;;;;;;;;;;;;;;;;;;5071798;28;1320;-40
2023/02/23 06:53:34;;;;;;;;;;;;;;;;;;5071557;28;2317;-43
2023/02/23 06:56:02;;;;;;;;;;;;;;;;;;5071663;28;1675;-41
2023/02/23 06:58:29;;;;;;;;;;;;;;;;;;5071447;28;2096;-44
2023/02/23 07:00:58;;;;;;;;;;;;;;;;;;5071716;28;1373;-43
2023/02/23 07:03:25;;;;;;;;;;;;;;;;;;5070994;28;1979;-45
2023/02/23 07:05:53;;;;;;;;;;;;;;;;;;5083546;28;1852;-42
2023/02/23 07:08:21;;;;;;;;;;;;;;;;;;5090610;28;1777;-48
2023/02/23 07:10:48;;;;;;;;;;;;;;;;;;5090075;28;1608;-41
2023/02/23 07:13:15;;;;;;;;;;;;;;;;;;5090675;28;1774;-44
2023/02/23 07:15:42;;;;;;;;;;;;;;;;;;5090678;28;1273;-42
2023/02/23 07:18:10;;;;;;;;;;;;;;;;;;5090646;28;2101;-46
2023/02/23 07:20:37;;;;;;;;;;;;;;;;;;5090498;28;1509;-40
2023/02/23 07:23:04;;;;;;;;;;;;;;;;;;5090355;28;1977;-49
2023/02/23 07:25:31;;;;;;;;;;;;;;;;;;5089622;28;1540;-42
2023/02/23 07:27:58;;;;;;;;;;;;;;;;;;5090489;28;1723;-39
2023/02/23 07:30:25;;;;;;;;;;;;;;;;;;5090324;28;1618;-43
2023/02/23 07:32:53;;;;;;;;;;;;;;;;;;5090547;28;1430;-44
2023/02/23 07:35:20;;;;;;;;;;;;;;;;;;5090034;28;1785;-42
2023/02/23 07:37:47;;;;;;;;;;;;;;;;;;5090082;28;1734;-41
2023/02/23 07:40:14;;;;;;;;;;;;;;;;;;5089929;28;1612;-48
2023/02/23 07:42:41;;;;;;;;;;;;;;;;;;5090115;28;1920;-47
2023/02/23 07:45:09;;;;;;;;;;;;;;;;;;5090102;28;1433;-44
2023/02/23 07:47:38;;;;;;;;;;;;;;;;;;5071914;28;2406;-44
2023/02/23 07:50:09;;;;;;;;;;;;;;;;;;5090009;28;1415;-42
2023/02/23 07:52:37;;;;;;;;;;;;;;;;;;5089799;28;1803;-44
2023/02/23 07:55:05;;;;;;;;;;;;;;;;;;5089940;28;1761;-41
2023/02/23 07:57:32;;;;;;;;;;;;;;;;;;5090210;28;1437;-40
2023/02/23 07:59:59;;;;;;;;;;;;;;;;;;5090165;28;1672;-44
2023/02/23 08:02:31;;;;;;;;;;;;;;;;;;5090001;28;1911;-45
2023/02/23 08:04:58;;;;;;;;;;;;;;;;;;5084472;28;1918;-41
2023/02/23 08:07:25;;;;;;;;;;;;;;;;;;5069844;28;1352;-48
2023/02/23 08:09:52;;;;;;;;;;;;;;;;;;5069799;28;2055;-40
2023/02/23 08:12:20;;;;;;;;;;;;;;;;;;5081774;28;1567;-40
2023/02/23 08:14:47;;;;;;;;;;;;;;;;;;5071600;28;2212;-38
2023/02/23 08:17:14;;;;;;;;;;;;;;;;;;5089532;28;1706;-44
2023/02/23 08:19:41;;;;;;;;;;;;;;;;;;5089624;28;1845;-40
2023/02/23 08:22:08;;;;;;;;;;;;;;;;;;5089607;28;1667;-47
2023/02/23 08:24:36;;;;;;;;;;;;;;;;;;5089911;28;1914;-47
2023/02/23 08:27:03;;;;;;;;;;;;;;;;;;5089694;28;2030;-46
2023/02/23 08:29:30;;;;;;;;;;;;;;;;;;5089879;28;1879;-47
2023/02/23 08:31:58;;;;;;;;;;;;;;;;;;5089076;28;1766;-41
2023/02/23 08:34:25;;;;;;;;;;;;;;;;;;5089038;28;1498;-41
2023/02/23 08:36:52;;;;;;;;;;;;;;;;;;5090492;28;1739;-43
2023/02/23 08:39:20;;;;;;;;;;;;;;;;;;5093496;28;1397;-48
2023/02/23 08:41:47;;;;;;;;;;;;;;;;;;5079737;28;1940;-36
2023/02/23 08:44:15;;;;;;;;;;;;;;;;;;5072934;28;1906;-37
2023/02/23 08:46:44;;;;;;;;;;;;;;;;;;5072603;28;1400;-45
2023/02/23 08:49:11;;;;;;;;;;;;;;;;;;5072722;28;1621;-43
2023/02/23 08:51:39;;;;;;;;;;;;;;;;;;5055627;28;1759;-47
2023/02/23 08:54:12;;;;;;;;;;;;;;;;;;5092743;28;1189;-38
2023/02/23 08:56:41;;;;;;;;;;;;;;;;;;5092791;28;1916;-37
2023/02/23 08:59:10;;;;;;;;;;;;;;;;;;5093339;28;1561;-39
2023/02/23 09:01:37;;;;;;;;;;;;;;;;;;5073765;28;1497;-46
2023/02/23 09:04:05;;;;;;;;;;;;;;;;;;5072710;28;1910;-37
2023/02/23 09:06:35;;;;;;;;;;;;;;;;;;5084596;28;1975;-36
2023/02/23 09:09:02;;;;;;;;;;;;;;;;;;5073562;28;1884;-36
2023/02/23 09:11:30;;;;;;;;;;;;;;;;;;5091512;28;1872;-38
2023/02/23 09:13:57;;;;;;;;;;;;;;;;;;5093564;28;1328;-43
2023/02/23 09:16:25;;;;;;;;;;;;;;;;;;5093344;28;2000;-39
2023/02/23 09:18:52;;;;;;;;;;;;;;;;;;5093609;28;1543;-44
2023/02/23 09:21:24;;;;;;;;;;;;;;;;;;5093556;28;2167;-43
2023/02/23 09:23:53;;;;;;;;;;;;;;;;;;5093539;28;1973;-36
2023/02/23 09:26:22;;;;;;;;;;;;;;;;;;5093280;28;1961;-36
2023/02/23 09:28:49;;;;;;;;;;;;;;;;;;5092999;28;1557;-40
2023/02/23 09:31:18;;;;;;;;;;;;;;;;;;5092862;28;1929;-40
2023/02/23 09:33:46;;;;;;;;;;;;;;;;;;5082519;28;1815;-41
2023/02/23 09:36:17;;;;;;;;;;;;;;;;;;5090188;28;1605;-40
2023/02/23 09:38:46;;;;;;;;;;;;;;;;;;5093092;28;2061;-38
2023/02/23 09:41:29;;;;;;;;;;;;;;;;;;5092672;28;1334;-36
2023/02/23 09:44:14;;;;;;;;;;;;;;;;;;5092101;28;2278;-36
2023/02/23 09:46:52;;;;;;;;;;;;;;;;;;5092438;28;1311;-40
2023/02/23 09:49:22;;;;;;;;;;;;;;;;;;5091579;28;1799;-48
2023/02/23 09:51:52;;;;;;;;;;;;;;;;;;5092243;28;1454;-42
2023/02/23 09:54:23;;;;;;;;;;;;;;;;;;5091964;28;1812;-40
2023/02/23 09:56:51;;;;;;;;;;;;;;;;;;5092151;28;1907;-41
2023/02/23 09:59:20;;;;;;;;;;;;;;;;;;5091994;28;2229;-42
2023/02/23 10:01:55;;;;;;;;;;;;;;;;;;5092249;28;1707;-41
2023/02/23 10:04:45;;;;;;;;;;;;;;;;;;5092208;28;1995;-43
2023/02/23 10:07:12;;;;;;;;;;;;;;;;;;5072490;28;1983;-42
2023/02/23 10:09:58;;;;;;;;;;;;;;;;;;5071871;28;1943;-46
2023/02/23 10:12:34;;;;;;;;;;;;;;;;;;5072407;28;2140;-45
2023/02/23 10:15:05;;;;;;;;;;;;;;;;;;5072684;28;2060;-46
2023/02/23 10:17:51;;;;;;;;;;;;;;;;;;5072487;28;1845;-40
2023/02/23 10:20:22;;;;;;;;;;;;;;;;;;5072296;28;1500;-48
2023/02/23 10:22:50;;;;;;;;;;;;;;;;;;5071887;28;1667;-43
2023/02/23 10:25:23;;;;;;;;;;;;;;;;;;5072016;28;1700;-44
2023/02/23 10:27:51;;;;;;;;;;;;;;;;;;5071976;28;1776;-44
2023/02/23 10:30:21;;;;;;;;;;;;;;;;;;5077487;28;1745;-46
2023/02/23 10:32:55;;;;;;;;;;;;;;;;;;5091292;28;1682;-47
2023/02/23 10:35:22;;;;;;;;;;;;;;;;;;5090748;28;1652;-44
2023/02/23 10:37:53;;;;;;;;;;;;;;;;;;5091261;28;1801;-48
2023/02/23 10:40:31;;;;;;;;;;;;;;;;;;5091069;28;1604;-41
2023/02/23 10:43:00;;;;;;;;;;;;;;;;;;5091275;28;2226;-42
2023/02/23 10:45:29;;;;;;;;;;;;;;;;;;5089832;28;1703;-44
2023/02/23 10:48:01;;;;;;;;;;;;;;;;;;5070745;28;1544;-48
2023/02/23 10:50:29;;;;;;;;;;;;;;;;;;5070711;28;1758;-45
2023/02/23 10:53:06;;;;;;;;;;;;;;;;;;5070634;28;1935;-44
2023/02/23 10:55:33;;;;;;;;;;;;;;;;;;5070314;28;1702;-40
2023/02/23 10:58:18;;;;;;;;;;;;;;;;;;5070446;28;1868;-40
2023/02/23 11:01:04;;;;;;;;;;;;;;;;;;5069769;28;1731;-47
2023/02/23 11:03:34;;;;;;;;;;;;;;;;;;5070549;28;1976;-40
2023/02/23 11:06:02;;;;;;;;;;;;;;;;;;5084857;28;1879;-44
2023/02/23 11:08:33;;;;;;;;;;;;;;;;;;5090710;28;2142;-43
2023/02/23 11:11:07;;;;;;;;;;;;;;;;;;5090779;28;2137;-42
2023/02/23 11:13:36;;;;;;;;;;;;;;;;;;5090778;28;2075;-45
2023/02/23 11:16:05;;;;;;;;;;;;;;;;;;5090656;28;1468;-40
2023/02/23 11:18:32;;;;;;;;;;;;;;;;;;5090596;28;1858;-43
2023/02/23 11:20:59;;;;;;;;;;;;;;;;;;5090596;28;1849;-40
2023/02/23 11:23:28;;;;;;;;;;;;;;;;;;5071958;28;1897;-41
2023/02/23 11:26:00;;;;;;;;;;;;;;;;;;5090390;28;1941;-42
2023/02/23 11:28:30;;;;;;;;;;;;;;;;;;5090685;28;1774;-42
2023/02/23 11:31:18;;;;;;;;;;;;;;;;;;5074988;28;2118;-42
2023/02/23 11:33:46;;;;;;;;;;;;;;;;;;5070120;28;1894;-43
2023/02/23 11:36:13;;;;;;;;;;;;;;;;;;5069715;28;2144;-43
2023/02/23 11:38:40;;;;;;;;;;;;;;;;;;5090125;28;1392;-43
2023/02/23 11:41:21;;;;;;;;;;;;;;;;;;5087482;28;1933;-45
2023/02/23 11:43:56;;;;;;;;;;;;;;;;;;5069789;28;1966;-44
2023/02/23 11:46:24;;;;;;;;;;;;;;;;;;5070300;28;2189;-45
2023/02/23 11:48:54;;;;;;;;;;;;;;;;;;5069988;28;1719;-46
2023/02/23 11:51:29;;;;;;;;;;;;;;;;;;5069841;28;1831;-46
2023/02/23 11:53:57;;;;;;;;;;;;;;;;;;5068712;28;1868;-40
2023/02/23 11:56:24;;;;;;;;;;;;;;;;;;5068304;28;1848;-45
2023/02/23 11:58:54;;;;;;;;;;;;;;;;;;5069755;28;1739;-41
2023/02/23 12:01:42;;;;;;;;;;;;;;;;;;5069767;28;1938;-47
2023/02/23 12:04:29;;;;;;;;;;;;;;;;;;5069802;28;1907;-42
2023/02/23 12:07:17;;;;;;;;;;;;;;;;;;5069673;28;2037;-42
2023/02/23 12:09:46;;;;;;;;;;;;;;;;;;5069767;28;1677;-44
2023/02/23 12:12:17;;;;;;;;;;;;;;;;;;5072598;28;1588;-45
2023/02/23 12:14:45;;;;;;;;;;;;;;;;;;5073786;28;1816;-44
2023/02/23 12:17:17;;;;;;;;;;;;;;;;;;5084415;28;2154;-44
2023/02/23 12:19:50;;;;;;;;;;;;;;;;;;5094106;28;1649;-46
2023/02/23 12:22:19;;;;;;;;;;;;;;;;;;5093588;28;1778;-45
2023/02/23 12:24:49;;;;;;;;;;;;;;;;;;5092918;28;1911;-43
2023/02/23 12:27:49;;;;;;;;;;;;;;;;;;5093681;28;1885;-44
2023/02/23 12:30:27;;;;;;;;;;;;;;;;;;5059993;28;1476;-46
2023/02/23 12:32:59;;;;;;;;;;;;;;;;;;5093558;28;1726;-43
2023/02/23 12:35:34;;;;;;;;;;;;;;;;;;5093489;28;1955;-42
2023/02/23 12:38:11;;;;;;;;;;;;;;;;;;5093743;28;2132;-41
2023/02/23 12:40:41;;;;;;;;;;;;;;;;;;5093643;28;1850;-47
2023/02/23 12:43:18;;;;;;;;;;;;;;;;;;5093327;28;1260;-43
2023/02/23 12:45:54;;;;;;;;;;;;;;;;;;5084718;28;1971;-43
2023/02/23 12:48:29;;;;;;;;;;;;;;;;;;5073019;28;1754;-42
2023/02/23 12:50:58;;;;;;;;;;;;;;;;;;5073190;28;1903;-45
2023/02/23 12:53:44;;;;;;;;;;;;;;;;;;5073162;28;1952;-40
2023/02/23 12:56:32;;;;;;;;;;;;;;;;;;5073120;28;1684;-41
2023/02/23 12:59:28;;;;;;;;;;;;;;;;;;5072786;28;1966;-45
2023/02/23 13:02:00;;;;;;;;;;;;;;;;;;5061326;28;2054;-44
2023/02/23 13:04:45;;;;;;;;;;;;;;;;;;5073772;28;1982;-46
2023/02/23 13:07:15;;;;;;;;;;;;;;;;;;5092924;28;1946;-47
2023/02/23 13:09:50;;;;;;;;;;;;;;;;;;5092913;28;1895;-47
2023/02/23 13:12:39;;;;;;;;;;;;;;;;;;5074744;28;2015;-46
2023/02/23 13:15:09;;;;;;;;;;;;;;;;;;5093782;28;2084;-42
2023/02/23 13:17:44;;;;;;;;;;;;;;;;;;5093703;28;1769;-37
2023/02/23 13:20:20;;;;;;;;;;;;;;;;;;5093665;28;1652;-44
2023/02/23 13:22:59;;;;;;;;;;;;;;;;;;5092584;28;1432;-45
2023/02/23 13:25:35;;;;;;;;;;;;;;;;;;5093664;28;1911;-44
2023/02/23 13:28:03;;;;;;;;;;;;;;;;;;5093627;28;1393;-47
2023/02/23 13:30:35;;;;;;;;;;;;;;;;;;5093839;28;2442;-45
2023/02/23 13:33:11;;;;;;;;;;;;;;;;;;5093661;28;1535;-44
2023/02/23 13:35:39;;;;;;;;;;;;;;;;;;5093035;28;1797;-48
2023/02/23 13:38:24;;;;;;;;;;;;;;;;;;5093396;28;1689;-44
2023/02/23 13:40:57;;;;;;;;;;;;;;;;;;5093274;28;2091;-42
2023/02/23 13:43:32;;;;;;;;;;;;;;;;;;5093156;28;1756;-45
2023/02/23 13:45:59;;;;;;;;;;;;;;;;;;5093086;28;2142;-42
2023/02/23 13:48:30;;;;;;;;;;;;;;;;;;5093142;28;1685;-46
2023/02/23 13:50:57;;;;;;;;;;;;;;;;;;5093017;28;1820;-45
2023/02/23 13:53:41;;;;;;;;;;;;;;;;;;5093219;28;2081;-44
2023/02/23 13:56:20;;;;;;;;;;;;;;;;;;5093057;28;2020;-47
2023/02/23 13:58:51;;;;;;;;;;;;;;;;;;5092883;28;1581;-49
2023/02/23 14:01:26;;;;;;;;;;;;;;;;;;5092631;28;2018;-49
2023/02/23 14:03:55;;;;;;;;;;;;;;;;;;5092597;28;2030;-44
2023/02/23 14:06:23;;;;;;;;;;;;;;;;;;5075480;28;2369;-43
2023/02/23 14:08:57;;;;;;;;;;;;;;;;;;5072761;28;1407;-41
2023/02/23 14:11:42;;;;;;;;;;;;;;;;;;5072529;28;2271;-42
2023/02/23 14:14:32;;;;;;;;;;;;;;;;;;5072044;28;1496;-43
2023/02/23 14:17:10;;;;;;;;;;;;;;;;;;5072080;28;2075;-47
2023/02/23 14:19:40;;;;;;;;;;;;;;;;;;5072625;28;1991;-43
2023/02/23 14:22:11;;;;;;;;;;;;;;;;;;5071871;28;1651;-45
2023/02/23 14:24:40;;;;;;;;;;;;;;;;;;5072229;28;1908;-46
2023/02/23 14:27:18;;;;;;;;;;;;;;;;;;5072389;28;1638;-44
2023/02/23 14:30:05;;;;;;;;;;;;;;;;;;5072247;28;1691;-46
2023/02/23 14:32:37;;;;;;;;;;;;;;;;;;5072067;28;1801;-45
2023/02/23 14:35:04;;;;;;;;;;;;;;;;;;5071643;28;1298;-43
2023/02/23 14:37:35;;;;;;;;;;;;;;;;;;5072209;28;1817;-46
2023/02/23 14:40:07;;;;;;;;;;;;;;;;;;5072181;28;2013;-41
2023/02/23 14:42:37;;;;;;;;;;;;;;;;;;5072035;28;2013;-46
2023/02/23 14:45:12;;;;;;;;;;;;;;;;;;5071829;28;2182;-46
2023/02/23 14:47:41;;;;;;;;;;;;;;;;;;5071869;28;1790;-43
2023/02/23 14:50:14;;;;;;;;;;;;;;;;;;5071415;28;2449;-42
2023/02/23 14:52:42;;;;;;;;;;;;;;;;;;5071802;28;1823;-49
2023/02/23 14:55:09;;;;;;;;;;;;;;;;;;5053776;28;2006;-42
2023/02/23 14:57:38;;;;;;;;;;;;;;;;;;5071608;28;1895;-44
2023/02/23 15:00:24;;;;;;;;;;;;;;;;;;5071648;28;1619;-46
2023/02/23 15:03:02;;;;;;;;;;;;;;;;;;5071677;28;2015;-49
2023/02/23 15:05:51;;;;;;;;;;;;;;;;;;5063490;28;1959;-51
2023/02/23 15:08:20;;;;;;;;;;;;;;;;;;5091721;28;1633;-41
2023/02/23 15:11:01;;;;;;;;;;;;;;;;;;5091682;28;1683;-49
2023/02/23 15:13:31;;;;;;;;;;;;;;;;;;5091544;28;1922;-44
2023/02/23 15:16:06;;;;;;;;;;;;;;;;;;5091599;28;2054;-45
2023/02/23 15:18:39;;;;;;;;;;;;;;;;;;5091354;28;1598;-43
2023/02/23 15:21:15;;;;;;;;;;;;;;;;;;5091309;28;2233;-46
2023/02/23 15:23:44;;;;;;;;;;;;;;;;;;5091521;28;1959;-45
2023/02/23 15:26:18;;;;;;;;;;;;;;;;;;5091331;28;1910;-45
2023/02/23 15:28:50;;;;;;;;;;;;;;;;;;5091250;28;2130;-41
2023/02/23 15:31:18;;;;;;;;;;;;;;;;;;5091342;28;2054;-47
2023/02/23 15:33:49;;;;;;;;;;;;;;;;;;5091139;28;1849;-49
2023/02/23 15:36:27;;;;;;;;;;;;;;;;;;5091087;28;1486;-48
2023/02/23 15:38:55;;;;;;;;;;;;;;;;;;5091171;28;1948;-48
2023/02/23 15:41:31;;;;;;;;;;;;;;;;;;5091054;28;1789;-46
2023/02/23 15:44:08;;;;;;;;;;;;;;;;;;5091271;28;1736;-41
2023/02/23 15:46:37;;;;;;;;;;;;;;;;;;5090729;28;2122;-44
2023/02/23 15:49:05;;;;;;;;;;;;;;;;;;5090941;28;2015;-41
2023/02/23 15:51:35;;;;;;;;;;;;;;;;;;5091375;28;1648;-46
2023/02/23 15:54:12;;;;;;;;;;;;;;;;;;5091138;28;2138;-41
2023/02/23 15:56:40;;;;;;;;;;;;;;;;;;5090903;28;1695;-45
2023/02/23 15:59:13;;;;;;;;;;;;;;;;;;5091208;28;2062;-41
2023/02/23 16:01:41;;;;;;;;;;;;;;;;;;5091011;28;1999;-42
2023/02/23 16:04:11;;;;;;;;;;;;;;;;;;5091151;28;2308;-41
2023/02/23 16:06:52;;;;;;;;;;;;;;;;;;5071328;28;2133;-43
2023/02/23 16:09:25;;;;;;;;;;;;;;;;;;5070782;28;2176;-47
2023/02/23 16:12:00;;;;;;;;;;;;;;;;;;5070834;28;2426;-48
2023/02/23 16:14:31;;;;;;;;;;;;;;;;;;5070573;28;2007;-43
2023/02/23 16:16:58;;;;;;;;;;;;;;;;;;5070478;28;1814;-44
2023/02/23 16:19:39;;;;;;;;;;;;;;;;;;5070748;28;1996;-43
2023/02/23 16:22:15;;;;;;;;;;;;;;;;;;5070534;28;1821;-43
2023/02/23 16:24:42;;;;;;;;;;;;;;;;;;5070446;28;1971;-42
2023/02/23 16:27:10;;;;;;;;;;;;;;;;;;5070455;28;1268;-43
2023/02/23 16:29:43;;;;;;;;;;;;;;;;;;5070564;28;1958;-43
2023/02/23 16:32:15;;;;;;;;;;;;;;;;;;5070601;28;1809;-42
2023/02/23 16:34:58;;;;;;;;;;;;;;;;;;5070403;28;1884;-39
2023/02/23 16:37:26;;;;;;;;;;;;;;;;;;5052408;28;2335;-43
2023/02/23 16:39:57;;;;;;;;;;;;;;;;;;5070118;28;2034;-45
2023/02/23 16:42:24;;;;;;;;;;;;;;;;;;5070497;28;2220;-42
2023/02/23 16:44:51;;;;;;;;;;;;;;;;;;5070351;28;2125;-43
2023/02/23 16:47:21;;;;;;;;;;;;;;;;;;5082260;28;2350;-46
2023/02/23 16:49:49;;;;;;;;;;;;;;;;;;5090638;28;1273;-40
2023/02/23 16:52:18;;;;;;;;;;;;;;;;;;5090104;28;1766;-48
2023/02/23 16:54:47;;;;;;;;;;;;;;;;;;5090640;28;1468;-51
2023/02/23 16:57:21;;;;;;;;;;;;;;;;;;5090064;28;2044;-44
2023/02/23 16:59:49;;;;;;;;;;;;;;;;;;5094210;28;2170;-44
2023/02/23 17:02:17;;;;;;;;;;;;;;;;;;5094104;28;2043;-45
2023/02/23 17:04:47;;;;;;;;;;;;;;;;;;5090180;28;1914;-48
2023/02/23 17:07:16;;;;;;;;;;;;;;;;;;5073425;28;1754;-48
2023/02/23 17:09:43;;;;;;;;;;;;;;;;;;5073665;28;2083;-44
2023/02/23 17:12:11;;;;;;;;;;;;;;;;;;5073501;28;1883;-47
2023/02/23 17:14:39;;;;;;;;;;;;;;;;;;5073509;28;2061;-49
2023/02/23 17:17:15;;;;;;;;;;;;;;;;;;5073616;28;1474;-40
2023/02/23 17:19:44;;;;;;;;;;;;;;;;;;5055754;28;2141;-41
2023/02/23 17:22:11;;;;;;;;;;;;;;;;;;5073409;28;1655;-43
2023/02/23 17:24:39;;;;;;;;;;;;;;;;;;5073052;28;2077;-43
2023/02/23 17:27:06;;;;;;;;;;;;;;;;;;5073178;28;1791;-44
2023/02/23 17:29:33;;;;;;;;;;;;;;;;;;5073551;28;1968;-48
2023/02/23 17:32:01;;;;;;;;;;;;;;;;;;5073252;28;2206;-42
2023/02/23 17:34:28;;;;;;;;;;;;;;;;;;5073038;28;1568;-43
2023/02/23 17:36:56;;;;;;;;;;;;;;;;;;5073079;28;2136;-46
2023/02/23 17:39:26;;;;;;;;;;;;;;;;;;5073082;28;2005;-45
2023/02/23 17:41:54;;;;;;;;;;;;;;;;;;5054985;28;1788;-43
2023/02/23 17:44:21;;;;;;;;;;;;;;;;;;5072767;28;1965;-45
2023/02/23 17:46:48;;;;;;;;;;;;;;;;;;5073026;28;2006;-44
2023/02/23 17:49:16;;;;;;;;;;;;;;;;;;5073042;28;1620;-42
2023/02/23 17:51:43;;;;;;;;;;;;;;;;;;5073153;28;1915;-44
2023/02/23 17:54:10;;;;;;;;;;;;;;;;;;5054830;28;1905;-41
2023/02/23 17:56:37;;;;;;;;;;;;;;;;;;5072756;28;1815;-44
2023/02/23 17:59:04;;;;;;;;;;;;;;;;;;5072812;28;1487;-42
2023/02/23 18:01:31;;;;;;;;;;;;;;;;;;5072681;28;1902;-47
2023/02/23 18:03:59;;;;;;;;;;;;;;;;;;5072282;28;1807;-48
2023/02/23 18:06:27;;;;;;;;;;;;;;;;;;5090323;28;1998;-42
2023/02/23 18:08:55;;;;;;;;;;;;;;;;;;5092259;28;1560;-42
2023/02/23 18:11:23;;;;;;;;;;;;;;;;;;5092539;28;1644;-42
2023/02/23 18:13:51;;;;;;;;;;;;;;;;;;5092713;28;1944;-41
2023/02/23 18:16:19;;;;;;;;;;;;;;;;;;5092664;28;1781;-43
2023/02/23 18:18:47;;;;;;;;;;;;;;;;;;5092617;28;2060;-46
2023/02/23 18:21:16;;;;;;;;;;;;;;;;;;5092446;28;1936;-51
2023/02/23 18:23:43;;;;;;;;;;;;;;;;;;5092416;28;2159;-48
2023/02/23 18:26:12;;;;;;;;;;;;;;;;;;5092014;28;2025;-44
2023/02/23 18:28:43;;;;;;;;;;;;;;;;;;5092454;28;1249;-43
2023/02/23 18:31:14;;;;;;;;;;;;;;;;;;5092364;28;2170;-45
2023/02/23 18:33:43;;;;;;;;;;;;;;;;;;5092433;28;1827;-46
2023/02/23 18:36:17;;;;;;;;;;;;;;;;;;5091816;28;1739;-43
2023/02/23 18:38:46;;;;;;;;;;;;;;;;;;5092087;28;2134;-48
2023/02/23 18:41:16;;;;;;;;;;;;;;;;;;5092010;28;2136;-44
2023/02/23 18:43:43;;;;;;;;;;;;;;;;;;5092049;28;1911;-47
2023/02/23 18:46:11;;;;;;;;;;;;;;;;;;5091953;28;2160;-41